»·PEaware :: AAL2774 KPHX-KSLC

AAL2774 :: KPHX-KSLC

FLIGHT INFORMATION

Flight Status: Arrived
Operator:
American Airlines
More flights by this operator :: More flights under this callsign
Pilot: John C. (18682)
Aircraft: AIRBUS A320
(A320)
More flights by this aircraft type
Origin: KPHX Phoenix Sky Harbor Intl
United States
Destination: KSLC Salt Lake City Intl
United States
More flights between these airports :: More routes between these airports
Route: ZIDOG1 ZIDOG QUAKY SNOBL CARTL LOFTS GCN BCE QWENN5
File this flight plan on PilotEdge
Remarks:
Altitude:
(Current/Filed)
32,000ft
Speed:
(Current/Filed)
450kts
Departed: 11-May-18 05:11 PM
Arrived: 11-May-18 06:21 PM
Distance/Time
Traveled:
441nm/1:10
Distance/Time
To Go:
Arrived

Flight Plot

Page will automatically refresh every two minutes.

Flight plan parsing failed; only flown route is shown


Map Options




Map Legend


Flown Route
Filed Route
Departure Airport
Arrival Airport
Navaid (VOR, NDB)
Fix

Horizontal Profiles

Position Reports

Time Latitude Longitude Heading Altitude Ground
Speed
11-May-18 16:51 33.437858 -111.997351 89 1134ft 0kts
11-May-18 16:52 33.437858 -111.997351 89 1134ft 0kts
11-May-18 16:53 33.437858 -111.997351 89 1134ft 0kts
11-May-18 16:54 33.437858 -111.997351 89 1134ft 0kts
11-May-18 16:55 33.437858 -111.997351 89 1134ft 0kts
11-May-18 16:56 33.437858 -111.997351 89 1134ft 0kts
11-May-18 16:57 33.437858 -111.997351 89 1134ft 0kts
11-May-18 16:58 33.437858 -111.997351 89 1134ft 0kts
11-May-18 16:59 33.437858 -111.997351 89 1134ft 0kts
11-May-18 17:00 33.437858 -111.997351 89 1134ft 0kts
11-May-18 17:01 33.437858 -111.997351 89 1134ft 0kts
11-May-18 17:02 33.437858 -111.997351 89 1134ft 0kts
11-May-18 17:03 33.437858 -111.997351 89 1134ft 0kts
11-May-18 17:04 33.437784 -111.997715 44 1134ft 2kts
11-May-18 17:05 33.437529 -111.997821 359 1133ft 0kts
11-May-18 17:06 33.437530 -111.997821 359 1133ft 0kts
11-May-18 17:07 33.438330 -111.997816 0 1135ft 4kts
11-May-18 17:08 33.438568 -111.997804 3 1135ft 7kts
11-May-18 17:09 33.439043 -111.993025 89 1136ft 12kts
11-May-18 17:10 33.439811 -111.992264 1 1137ft 1kts
11-May-18 17:11 33.440861 -112.001687 268 1133ft 128kts
11-May-18 17:12 33.441169 -112.053971 266 3774ft 182kts
11-May-18 17:13 33.443005 -112.126650 267 6231ft 243kts
11-May-18 17:14 33.474286 -112.195485 345 9436ft 298kts
11-May-18 17:15 33.560480 -112.194372 359 12345ft 333kts
11-May-18 17:16 33.662942 -112.186359 0 13754ft 398kts
11-May-18 17:17 33.774346 -112.177443 0 16277ft 409kts
11-May-18 17:18 33.888724 -112.167486 0 18636ft 419kts
11-May-18 17:19 34.005612 -112.156750 0 20795ft 428kts
11-May-18 17:20 34.124596 -112.145463 0 22787ft 436kts
11-May-18 17:21 34.241631 -112.106103 27 24611ft 455kts
11-May-18 17:22 34.351434 -112.028523 26 26225ft 462kts
11-May-18 17:23 34.469639 -111.977875 354 27653ft 452kts
11-May-18 17:24 34.594817 -111.991197 350 28985ft 456kts
11-May-18 17:25 34.721593 -112.005295 350 30158ft 462kts
11-May-18 17:26 34.847882 -112.019427 350 31744ft 455kts
11-May-18 17:27 34.973125 -112.033558 348 31953ft 453kts
11-May-18 17:28 35.099190 -112.047805 347 31976ft 457kts
11-May-18 17:29 35.224940 -112.062065 347 31980ft 457kts
11-May-18 17:30 35.350926 -112.076399 347 31974ft 457kts
11-May-18 17:31 35.477164 -112.090747 347 31973ft 456kts
11-May-18 17:32 35.603464 -112.105138 347 31959ft 457kts
11-May-18 17:33 35.729434 -112.119538 347 31948ft 456kts
11-May-18 17:34 35.855682 -112.134017 347 31947ft 457kts
11-May-18 17:35 35.981567 -112.148266 348 31950ft 458kts
11-May-18 17:36 36.107877 -112.159280 348 31948ft 458kts
11-May-18 17:37 36.213148 -112.168696 348 31952ft 458kts
11-May-18 17:38 36.340026 -112.180111 348 31948ft 458kts
11-May-18 17:39 36.466763 -112.191553 348 31953ft 458kts
11-May-18 17:40 36.593528 -112.203037 348 31950ft 458kts
11-May-18 17:41 36.720338 -112.214562 348 31915ft 458kts
11-May-18 17:42 36.847011 -112.226113 348 31870ft 458kts
11-May-18 17:43 36.973931 -112.237725 348 31855ft 459kts
11-May-18 17:44 37.100762 -112.249373 345 31875ft 461kts
11-May-18 17:45 37.228103 -112.261119 344 31885ft 465kts
11-May-18 17:46 37.356943 -112.273023 344 31923ft 466kts
11-May-18 17:47 37.485893 -112.284980 344 31926ft 467kts
11-May-18 17:48 37.614588 -112.296952 344 31917ft 466kts
11-May-18 17:49 37.745084 -112.296311 356 31910ft 483kts
11-May-18 17:50 37.878291 -112.277992 355 31906ft 482kts
11-May-18 17:51 38.009443 -112.259972 355 31893ft 482kts
11-May-18 17:52 38.141356 -112.241762 355 31895ft 482kts
11-May-18 17:53 38.273942 -112.223394 355 31900ft 481kts
11-May-18 17:54 38.406014 -112.205029 355 31926ft 481kts
11-May-18 17:55 38.538721 -112.186505 355 31922ft 481kts
11-May-18 17:56 38.669806 -112.168100 355 31428ft 468kts
11-May-18 17:57 38.797416 -112.150283 355 30503ft 462kts
11-May-18 17:58 38.923645 -112.132847 355 29547ft 455kts
11-May-18 17:59 39.045585 -112.115900 355 28645ft 433kts
11-May-18 18:00 39.155545 -112.100635 355 27784ft 422kts
11-May-18 18:01 39.270274 -112.084596 356 26839ft 413kts
11-May-18 18:02 39.382566 -112.068702 356 25883ft 403kts
11-May-18 18:03 39.491880 -112.053167 356 24776ft 390kts
11-May-18 18:04 39.596886 -112.038213 357 22928ft 373kts
11-May-18 18:05 39.697319 -112.023862 358 21133ft 356kts
11-May-18 18:06 39.792742 -112.010152 359 19410ft 339kts
11-May-18 18:07 39.884110 -111.997129 0 17750ft 323kts
11-May-18 18:08 39.970889 -111.984910 0 16181ft 308kts
11-May-18 18:09 40.054837 -111.973353 1 14671ft 302kts
11-May-18 18:10 40.137048 -111.961980 2 13185ft 297kts
11-May-18 18:11 40.218129 -111.950740 3 11708ft 293kts
11-May-18 18:12 40.299007 -111.938265 2 11031ft 295kts
11-May-18 18:13 40.380243 -111.929326 0 11031ft 293kts
11-May-18 18:14 40.457527 -111.936293 352 10905ft 260kts
11-May-18 18:15 40.527843 -111.944478 353 9140ft 246kts
11-May-18 18:16 40.594585 -111.952224 354 7682ft 231kts
11-May-18 18:17 40.652732 -111.958990 354 6663ft 186kts
11-May-18 18:18 40.697907 -111.964230 354 5759ft 141kts
11-May-18 18:19 40.736071 -111.968748 354 5033ft 140kts
11-May-18 18:20 40.773886 -111.973036 355 4288ft 139kts
11-May-18 18:21 40.791707 -111.975670 329 4236ft 1kts
11-May-18 18:22 40.792113 -111.976489 274 4236ft 8kts
11-May-18 18:23 40.788855 -111.976954 175 4236ft 17kts
11-May-18 18:24 40.784210 -111.976725 231 4236ft 14kts
11-May-18 18:25 40.784673 -111.977992 0 4236ft 0kts
11-May-18 18:26 40.784673 -111.977992 0 4236ft 0kts
11-May-18 18:27 40.784673 -111.977992 0 4236ft 0kts
11-May-18 18:28 40.784673 -111.977992 0 4236ft 0kts
11-May-18 18:29 40.784673 -111.977992 0 4236ft 0kts
11-May-18 18:30 40.784673 -111.977992 0 4236ft 0kts
11-May-18 18:31 40.784673 -111.977992 0 4236ft 0kts
11-May-18 18:32 40.784673 -111.977992 0 4236ft 0kts
11-May-18 18:33 40.784673 -111.977992 0 4236ft 0kts
11-May-18 18:34 40.784673 -111.977992 0 4236ft 0kts
11-May-18 18:35 40.784673 -111.977992 0 4236ft 0kts

Navigation Log

Ident Type
Flight plan parsing failed, navigation log unavailable